sensor_id;sensor_type;location;lat;lon;timestamp;P1;durP1;ratioP1;P2;durP2;ratioP2
63018;SDS011;49105;46.046;10.760;2023-04-01T00:01:37;4.72;;;4.63;;
63018;SDS011;49105;46.046;10.760;2023-04-01T00:04:02;4.28;;;4.18;;
63018;SDS011;49105;46.046;10.760;2023-04-01T00:06:28;4.30;;;4.20;;
63018;SDS011;49105;46.046;10.760;2023-04-01T00:08:53;4.65;;;4.55;;
63018;SDS011;49105;46.046;10.760;2023-04-01T00:11:19;4.80;;;4.70;;
63018;SDS011;49105;46.046;10.760;2023-04-01T00:13:44;4.40;;;4.30;;
63018;SDS011;49105;46.046;10.760;2023-04-01T00:16:10;4.10;;;4.00;;
63018;SDS011;49105;46.046;10.760;2023-04-01T00:18:36;4.25;;;4.15;;
63018;SDS011;49105;46.046;10.760;2023-04-01T00:21:09;4.47;;;4.38;;
63018;SDS011;49105;46.046;10.760;2023-04-01T00:23:38;4.80;;;4.70;;
63018;SDS011;49105;46.046;10.760;2023-04-01T00:26:04;4.32;;;4.22;;
63018;SDS011;49105;46.046;10.760;2023-04-01T00:28:39;4.38;;;4.28;;
63018;SDS011;49105;46.046;10.760;2023-04-01T00:31:09;4.38;;;4.28;;
63018;SDS011;49105;46.046;10.760;2023-04-01T00:33:35;4.00;;;3.90;;
63018;SDS011;49105;46.046;10.760;2023-04-01T00:36:10;4.47;;;4.38;;
63018;SDS011;49105;46.046;10.760;2023-04-01T00:38:43;4.13;;;4.03;;
63018;SDS011;49105;46.046;10.760;2023-04-01T00:41:11;4.80;;;4.70;;
63018;SDS011;49105;46.046;10.760;2023-04-01T00:43:40;4.65;;;4.55;;
63018;SDS011;49105;46.046;10.760;2023-04-01T00:46:10;4.25;;;4.15;;
63018;SDS011;49105;46.046;10.760;2023-04-01T00:48:37;4.00;;;3.90;;
63018;SDS011;49105;46.046;10.760;2023-04-01T00:51:09;4.18;;;4.07;;
63018;SDS011;49105;46.046;10.760;2023-04-01T00:53:45;4.07;;;3.97;;
63018;SDS011;49105;46.046;10.760;2023-04-01T00:56:14;4.30;;;4.20;;
63018;SDS011;49105;46.046;10.760;2023-04-01T00:58:43;4.85;;;4.75;;
63018;SDS011;49105;46.046;10.760;2023-04-01T01:01:13;4.40;;;4.30;;
63018;SDS011;49105;46.046;10.760;2023-04-01T01:03:39;4.75;;;4.65;;
63018;SDS011;49105;46.046;10.760;2023-04-01T01:08:39;4.13;;;4.03;;
63018;SDS011;49105;46.046;10.760;2023-04-01T01:11:22;3.78;;;3.67;;
63018;SDS011;49105;46.046;10.760;2023-04-01T01:14:32;4.55;;;4.45;;
63018;SDS011;49105;46.046;10.760;2023-04-01T01:17:13;4.97;;;4.88;;
63018;SDS011;49105;46.046;10.760;2023-04-01T01:19:57;4.75;;;4.65;;
63018;SDS011;49105;46.046;10.760;2023-04-01T01:28:09;3.80;;;3.70;;
63018;SDS011;49105;46.046;10.760;2023-04-01T01:31:02;4.30;;;4.20;;
63018;SDS011;49105;46.046;10.760;2023-04-01T01:36:13;5.40;;;4.85;;
63018;SDS011;49105;46.046;10.760;2023-04-01T01:38:41;4.55;;;4.45;;
63018;SDS011;49105;46.046;10.760;2023-04-01T01:41:07;4.40;;;4.30;;
63018;SDS011;49105;46.046;10.760;2023-04-01T01:43:42;4.40;;;4.30;;
63018;SDS011;49105;46.046;10.760;2023-04-01T01:46:11;4.15;;;4.05;;
63018;SDS011;49105;46.046;10.760;2023-04-01T01:48:39;4.70;;;4.60;;
63018;SDS011;49105;46.046;10.760;2023-04-01T01:51:07;4.30;;;4.20;;
63018;SDS011;49105;46.046;10.760;2023-04-01T01:53:33;4.70;;;4.60;;
63018;SDS011;49105;46.046;10.760;2023-04-01T01:55:59;4.65;;;4.55;;
63018;SDS011;49105;46.046;10.760;2023-04-01T02:01:00;4.10;;;4.00;;
63018;SDS011;49105;46.046;10.760;2023-04-01T02:03:33;4.10;;;4.00;;
63018;SDS011;49105;46.046;10.760;2023-04-01T02:06:02;4.28;;;4.18;;
63018;SDS011;49105;46.046;10.760;2023-04-01T02:11:05;4.80;;;4.70;;
63018;SDS011;49105;46.046;10.760;2023-04-01T02:13:40;4.72;;;4.63;;
63018;SDS011;49105;46.046;10.760;2023-04-01T02:16:12;5.00;;;4.80;;
63018;SDS011;49105;46.046;10.760;2023-04-01T02:18:43;4.20;;;4.10;;
63018;SDS011;49105;46.046;10.760;2023-04-01T02:21:22;4.10;;;4.00;;
63018;SDS011;49105;46.046;10.760;2023-04-01T02:23:54;4.20;;;4.10;;
63018;SDS011;49105;46.046;10.760;2023-04-01T02:26:21;4.70;;;4.60;;
63018;SDS011;49105;46.046;10.760;2023-04-01T02:28:50;4.30;;;4.20;;
63018;SDS011;49105;46.046;10.760;2023-04-01T02:31:18;4.60;;;4.50;;
63018;SDS011;49105;46.046;10.760;2023-04-01T02:33:50;4.70;;;4.60;;
63018;SDS011;49105;46.046;10.760;2023-04-01T02:36:16;4.82;;;4.72;;
63018;SDS011;49105;46.046;10.760;2023-04-01T02:38:43;4.50;;;4.40;;
63018;SDS011;49105;46.046;10.760;2023-04-01T02:41:10;4.32;;;4.22;;
63018;SDS011;49105;46.046;10.760;2023-04-01T02:43:36;5.18;;;4.97;;
63018;SDS011;49105;46.046;10.760;2023-04-01T02:46:02;4.93;;;4.82;;
63018;SDS011;49105;46.046;10.760;2023-04-01T02:48:28;4.40;;;4.30;;
63018;SDS011;49105;46.046;10.760;2023-04-01T02:50:53;4.00;;;3.90;;
63018;SDS011;49105;46.046;10.760;2023-04-01T02:53:19;4.50;;;4.40;;
63018;SDS011;49105;46.046;10.760;2023-04-01T02:55:44;4.10;;;4.00;;
63018;SDS011;49105;46.046;10.760;2023-04-01T02:58:10;4.97;;;4.88;;
63018;SDS011;49105;46.046;10.760;2023-04-01T03:00:36;4.50;;;4.40;;
63018;SDS011;49105;46.046;10.760;2023-04-01T03:03:02;4.90;;;4.80;;
63018;SDS011;49105;46.046;10.760;2023-04-01T03:05:28;4.70;;;4.60;;
63018;SDS011;49105;46.046;10.760;2023-04-01T03:07:53;4.90;;;4.80;;
63018;SDS011;49105;46.046;10.760;2023-04-01T03:10:19;5.25;;;5.05;;
63018;SDS011;49105;46.046;10.760;2023-04-01T03:12:44;4.70;;;4.60;;
63018;SDS011;49105;46.046;10.760;2023-04-01T03:15:11;4.40;;;4.30;;
63018;SDS011;49105;46.046;10.760;2023-04-01T03:17:38;4.88;;;4.78;;
63018;SDS011;49105;46.046;10.760;2023-04-01T03:20:04;4.72;;;4.63;;
63018;SDS011;49105;46.046;10.760;2023-04-01T03:22:31;4.35;;;4.25;;
63018;SDS011;49105;46.046;10.760;2023-04-01T03:24:56;4.57;;;4.47;;
63018;SDS011;49105;46.046;10.760;2023-04-01T03:27:22;4.78;;;4.57;;
63018;SDS011;49105;46.046;10.760;2023-04-01T03:29:48;3.80;;;3.70;;
63018;SDS011;49105;46.046;10.760;2023-04-01T03:32:13;3.40;;;3.30;;
63018;SDS011;49105;46.046;10.760;2023-04-01T03:34:39;3.47;;;3.38;;
63018;SDS011;49105;46.046;10.760;2023-04-01T03:37:04;3.75;;;3.65;;
63018;SDS011;49105;46.046;10.760;2023-04-01T03:39:30;3.95;;;3.85;;
63018;SDS011;49105;46.046;10.760;2023-04-01T03:41:56;3.22;;;3.13;;
63018;SDS011;49105;46.046;10.760;2023-04-01T03:44:21;3.35;;;3.25;;
63018;SDS011;49105;46.046;10.760;2023-04-01T03:46:47;3.55;;;3.45;;
63018;SDS011;49105;46.046;10.760;2023-04-01T03:49:12;3.25;;;3.15;;
63018;SDS011;49105;46.046;10.760;2023-04-01T03:51:41;4.15;;;4.05;;
63018;SDS011;49105;46.046;10.760;2023-04-01T03:54:08;3.20;;;3.10;;
63018;SDS011;49105;46.046;10.760;2023-04-01T03:56:34;3.53;;;3.42;;
63018;SDS011;49105;46.046;10.760;2023-04-01T03:59:03;3.95;;;3.85;;
63018;SDS011;49105;46.046;10.760;2023-04-01T04:01:30;3.88;;;3.78;;
63018;SDS011;49105;46.046;10.760;2023-04-01T04:03:56;3.90;;;3.80;;
63018;SDS011;49105;46.046;10.760;2023-04-01T04:06:22;3.60;;;3.50;;
63018;SDS011;49105;46.046;10.760;2023-04-01T04:08:49;3.20;;;3.10;;
63018;SDS011;49105;46.046;10.760;2023-04-01T04:11:14;3.50;;;3.40;;
63018;SDS011;49105;46.046;10.760;2023-04-01T04:13:40;3.10;;;3.00;;
63018;SDS011;49105;46.046;10.760;2023-04-01T04:16:06;3.70;;;3.60;;
63018;SDS011;49105;46.046;10.760;2023-04-01T04:18:33;3.33;;;3.22;;
63018;SDS011;49105;46.046;10.760;2023-04-01T04:20:59;3.20;;;3.10;;
63018;SDS011;49105;46.046;10.760;2023-04-01T04:23:24;3.60;;;3.50;;
63018;SDS011;49105;46.046;10.760;2023-04-01T04:26:09;3.70;;;3.60;;
63018;SDS011;49105;46.046;10.760;2023-04-01T04:28:37;3.00;;;2.90;;
63018;SDS011;49105;46.046;10.760;2023-04-01T04:31:03;3.17;;;3.08;;
63018;SDS011;49105;46.046;10.760;2023-04-01T04:33:33;3.33;;;3.22;;
63018;SDS011;49105;46.046;10.760;2023-04-01T04:36:02;3.50;;;3.40;;
63018;SDS011;49105;46.046;10.760;2023-04-01T04:38:28;3.42;;;3.33;;
63018;SDS011;49105;46.046;10.760;2023-04-01T04:40:57;3.75;;;3.65;;
63018;SDS011;49105;46.046;10.760;2023-04-01T04:43:23;3.78;;;3.67;;
63018;SDS011;49105;46.046;10.760;2023-04-01T04:45:49;3.25;;;3.15;;
63018;SDS011;49105;46.046;10.760;2023-04-01T04:48:14;3.20;;;3.10;;
63018;SDS011;49105;46.046;10.760;2023-04-01T04:50:43;3.50;;;3.40;;
63018;SDS011;49105;46.046;10.760;2023-04-01T04:53:13;3.70;;;3.60;;
63018;SDS011;49105;46.046;10.760;2023-04-01T04:55:44;4.97;;;4.70;;
63018;SDS011;49105;46.046;10.760;2023-04-01T04:58:10;5.68;;;5.28;;
63018;SDS011;49105;46.046;10.760;2023-04-01T05:00:36;5.03;;;4.82;;
63018;SDS011;49105;46.046;10.760;2023-04-01T05:03:01;3.90;;;3.80;;
63018;SDS011;49105;46.046;10.760;2023-04-01T05:05:27;3.63;;;3.53;;
63018;SDS011;49105;46.046;10.760;2023-04-01T05:07:52;3.30;;;3.20;;
63018;SDS011;49105;46.046;10.760;2023-04-01T05:10:18;3.40;;;3.30;;
63018;SDS011;49105;46.046;10.760;2023-04-01T05:12:45;3.72;;;3.63;;
63018;SDS011;49105;46.046;10.760;2023-04-01T05:15:11;3.40;;;3.30;;
63018;SDS011;49105;46.046;10.760;2023-04-01T05:17:36;2.90;;;2.80;;
63018;SDS011;49105;46.046;10.760;2023-04-01T05:20:01;2.88;;;2.78;;
63018;SDS011;49105;46.046;10.760;2023-04-01T05:22:27;3.03;;;2.92;;
63018;SDS011;49105;46.046;10.760;2023-04-01T05:24:53;3.42;;;3.33;;
63018;SDS011;49105;46.046;10.760;2023-04-01T05:27:18;3.15;;;3.05;;
63018;SDS011;49105;46.046;10.760;2023-04-01T05:29:44;2.67;;;2.65;;
63018;SDS011;49105;46.046;10.760;2023-04-01T05:32:09;3.00;;;2.90;;
63018;SDS011;49105;46.046;10.760;2023-04-01T05:34:34;2.97;;;2.88;;
63018;SDS011;49105;46.046;10.760;2023-04-01T05:37:00;4.07;;;3.70;;
63018;SDS011;49105;46.046;10.760;2023-04-01T05:39:25;3.00;;;2.90;;
63018;SDS011;49105;46.046;10.760;2023-04-01T05:41:57;3.28;;;3.17;;
63018;SDS011;49105;46.046;10.760;2023-04-01T05:44:23;3.55;;;3.45;;
63018;SDS011;49105;46.046;10.760;2023-04-01T05:46:48;3.00;;;2.90;;
63018;SDS011;49105;46.046;10.760;2023-04-01T05:49:14;2.70;;;2.60;;
63018;SDS011;49105;46.046;10.760;2023-04-01T05:51:40;2.90;;;2.80;;
63018;SDS011;49105;46.046;10.760;2023-04-01T05:54:05;3.17;;;3.08;;
63018;SDS011;49105;46.046;10.760;2023-04-01T05:56:31;2.50;;;2.50;;
63018;SDS011;49105;46.046;10.760;2023-04-01T05:58:56;2.90;;;2.80;;
63018;SDS011;49105;46.046;10.760;2023-04-01T06:01:21;3.03;;;2.92;;
63018;SDS011;49105;46.046;10.760;2023-04-01T06:03:47;3.03;;;2.92;;
63018;SDS011;49105;46.046;10.760;2023-04-01T06:06:18;3.00;;;2.90;;
63018;SDS011;49105;46.046;10.760;2023-04-01T06:08:49;2.95;;;2.85;;
63018;SDS011;49105;46.046;10.760;2023-04-01T06:25:21;3.17;;;3.08;;
63018;SDS011;49105;46.046;10.760;2023-04-01T06:30:46;4.85;;;4.55;;
63018;SDS011;49105;46.046;10.760;2023-04-01T06:33:25;2.97;;;2.88;;
63018;SDS011;49105;46.046;10.760;2023-04-01T06:36:49;3.80;;;3.70;;
63018;SDS011;49105;46.046;10.760;2023-04-01T06:53:49;3.20;;;3.10;;
63018;SDS011;49105;46.046;10.760;2023-04-01T06:56:07;2.38;;;2.38;;
63018;SDS011;49105;46.046;10.760;2023-04-01T06:58:39;3.47;;;3.38;;
63018;SDS011;49105;46.046;10.760;2023-04-01T07:01:08;3.03;;;2.92;;
63018;SDS011;49105;46.046;10.760;2023-04-01T07:04:13;3.45;;;3.35;;
63018;SDS011;49105;46.046;10.760;2023-04-01T07:06:52;3.28;;;3.17;;
63018;SDS011;49105;46.046;10.760;2023-04-01T07:09:25;3.35;;;3.25;;
63018;SDS011;49105;46.046;10.760;2023-04-01T07:11:56;3.08;;;2.97;;
63018;SDS011;49105;46.046;10.760;2023-04-01T07:14:30;3.50;;;3.40;;
63018;SDS011;49105;46.046;10.760;2023-04-01T07:17:08;3.50;;;3.40;;
63018;SDS011;49105;46.046;10.760;2023-04-01T07:24:54;2.60;;;2.60;;
63018;SDS011;49105;46.046;10.760;2023-04-01T07:27:19;2.30;;;2.30;;
63018;SDS011;49105;46.046;10.760;2023-04-01T07:29:45;2.65;;;2.55;;
63018;SDS011;49105;46.046;10.760;2023-04-01T07:32:15;2.83;;;2.72;;
63018;SDS011;49105;46.046;10.760;2023-04-01T07:37:35;3.60;;;3.50;;
63018;SDS011;49105;46.046;10.760;2023-04-01T07:51:21;2.80;;;2.70;;
63018;SDS011;49105;46.046;10.760;2023-04-01T07:59:41;2.95;;;2.90;;
63018;SDS011;49105;46.046;10.760;2023-04-01T08:05:17;2.63;;;2.63;;
63018;SDS011;49105;46.046;10.760;2023-04-01T08:19:03;2.72;;;2.67;;
63018;SDS011;49105;46.046;10.760;2023-04-01T08:21:35;2.80;;;2.70;;
63018;SDS011;49105;46.046;10.760;2023-04-01T08:24:11;2.60;;;2.60;;
63018;SDS011;49105;46.046;10.760;2023-04-01T08:26:50;2.78;;;2.70;;
63018;SDS011;49105;46.046;10.760;2023-04-01T08:29:31;2.60;;;2.60;;
63018;SDS011;49105;46.046;10.760;2023-04-01T08:32:05;2.63;;;2.55;;
63018;SDS011;49105;46.046;10.760;2023-04-01T08:34:40;2.47;;;2.47;;
63018;SDS011;49105;46.046;10.760;2023-04-01T08:37:09;2.60;;;2.60;;
63018;SDS011;49105;46.046;10.760;2023-04-01T08:39:44;3.25;;;3.15;;
63018;SDS011;49105;46.046;10.760;2023-04-01T08:51:26;3.00;;;2.90;;
63018;SDS011;49105;46.046;10.760;2023-04-01T08:56:58;2.25;;;2.25;;
63018;SDS011;49105;46.046;10.760;2023-04-01T09:02:49;2.35;;;2.35;;
63018;SDS011;49105;46.046;10.760;2023-04-01T09:21:58;2.35;;;2.30;;
63018;SDS011;49105;46.046;10.760;2023-04-01T09:36:12;1.70;;;1.70;;
63018;SDS011;49105;46.046;10.760;2023-04-01T09:46:52;1.63;;;1.63;;
63018;SDS011;49105;46.046;10.760;2023-04-01T09:57:39;1.45;;;1.45;;
63018;SDS011;49105;46.046;10.760;2023-04-01T10:00:23;1.65;;;1.60;;
63018;SDS011;49105;46.046;10.760;2023-04-01T10:08:50;2.10;;;2.08;;
63018;SDS011;49105;46.046;10.760;2023-04-01T10:20:28;1.92;;;1.92;;
63018;SDS011;49105;46.046;10.760;2023-04-01T10:46:58;1.95;;;1.95;;
63018;SDS011;49105;46.046;10.760;2023-04-01T11:00:58;1.55;;;1.55;;
63018;SDS011;49105;46.046;10.760;2023-04-01T11:20:13;1.60;;;1.60;;
63018;SDS011;49105;46.046;10.760;2023-04-01T11:28:34;1.60;;;1.60;;
63018;SDS011;49105;46.046;10.760;2023-04-01T11:31:17;1.20;;;1.20;;
63018;SDS011;49105;46.046;10.760;2023-04-01T11:39:39;1.42;;;1.42;;
63018;SDS011;49105;46.046;10.760;2023-04-01T12:01:24;1.10;;;1.10;;
63018;SDS011;49105;46.046;10.760;2023-04-01T12:51:23;1.55;;;1.55;;
63018;SDS011;49105;46.046;10.760;2023-04-01T13:14:28;1.10;;;1.10;;
63018;SDS011;49105;46.046;10.760;2023-04-01T13:17:27;1.10;;;1.10;;
63018;SDS011;49105;46.046;10.760;2023-04-01T13:19:49;0.95;;;0.95;;
63018;SDS011;49105;46.046;10.760;2023-04-01T13:25:43;1.33;;;1.33;;
63018;SDS011;49105;46.046;10.760;2023-04-01T13:45:09;1.10;;;1.10;;
63018;SDS011;49105;46.046;10.760;2023-04-01T14:10:40;1.10;;;1.10;;
63018;SDS011;49105;46.046;10.760;2023-04-01T14:13:24;1.00;;;1.00;;
63018;SDS011;49105;46.046;10.760;2023-04-01T14:19:18;1.30;;;1.30;;
63018;SDS011;49105;46.046;10.760;2023-04-01T14:22:08;1.10;;;1.10;;
63018;SDS011;49105;46.046;10.760;2023-04-01T14:27:53;1.30;;;1.30;;
63018;SDS011;49105;46.046;10.760;2023-04-01T14:36:12;1.30;;;1.30;;
63018;SDS011;49105;46.046;10.760;2023-04-01T14:50:40;1.40;;;1.40;;
63018;SDS011;49105;46.046;10.760;2023-04-01T14:58:07;1.30;;;1.30;;
63018;SDS011;49105;46.046;10.760;2023-04-01T15:06:40;1.52;;;1.52;;
63018;SDS011;49105;46.046;10.760;2023-04-01T15:09:43;1.20;;;1.20;;
63018;SDS011;49105;46.046;10.760;2023-04-01T15:18:32;1.30;;;1.30;;
63018;SDS011;49105;46.046;10.760;2023-04-01T15:23:48;1.50;;;1.50;;
63018;SDS011;49105;46.046;10.760;2023-04-01T15:39:51;1.70;;;1.70;;
63018;SDS011;49105;46.046;10.760;2023-04-01T15:45:11;1.83;;;1.83;;
63018;SDS011;49105;46.046;10.760;2023-04-01T15:50:34;1.55;;;1.55;;
63018;SDS011;49105;46.046;10.760;2023-04-01T15:58:47;1.50;;;1.50;;
63018;SDS011;49105;46.046;10.760;2023-04-01T16:01:29;1.50;;;1.50;;
63018;SDS011;49105;46.046;10.760;2023-04-01T16:04:14;1.67;;;1.58;;
63018;SDS011;49105;46.046;10.760;2023-04-01T16:06:57;1.35;;;1.35;;
63018;SDS011;49105;46.046;10.760;2023-04-01T16:09:39;1.70;;;1.67;;
63018;SDS011;49105;46.046;10.760;2023-04-01T16:12:33;3.45;;;2.03;;
63018;SDS011;49105;46.046;10.760;2023-04-01T16:15:16;8.73;;;2.70;;
63018;SDS011;49105;46.046;10.760;2023-04-01T16:23:46;1.45;;;1.45;;
63018;SDS011;49105;46.046;10.760;2023-04-01T16:34:20;1.00;;;1.00;;
63018;SDS011;49105;46.046;10.760;2023-04-01T16:46:25;1.30;;;1.30;;
63018;SDS011;49105;46.046;10.760;2023-04-01T16:52:00;1.70;;;1.70;;
63018;SDS011;49105;46.046;10.760;2023-04-01T16:57:28;1.38;;;1.38;;
63018;SDS011;49105;46.046;10.760;2023-04-01T17:11:26;1.70;;;1.70;;
63018;SDS011;49105;46.046;10.760;2023-04-01T17:28:08;1.20;;;1.20;;
63018;SDS011;49105;46.046;10.760;2023-04-01T17:33:38;1.40;;;1.40;;
63018;SDS011;49105;46.046;10.760;2023-04-01T17:36:24;1.27;;;1.27;;
63018;SDS011;49105;46.046;10.760;2023-04-01T17:53:46;1.73;;;1.73;;
63018;SDS011;49105;46.046;10.760;2023-04-01T17:56:24;1.38;;;1.38;;
63018;SDS011;49105;46.046;10.760;2023-04-01T18:01:46;2.10;;;2.00;;
63018;SDS011;49105;46.046;10.760;2023-04-01T18:24:20;1.67;;;1.67;;
63018;SDS011;49105;46.046;10.760;2023-04-01T18:33:00;4.25;;;1.90;;
63018;SDS011;49105;46.046;10.760;2023-04-01T18:41:15;1.65;;;1.65;;
63018;SDS011;49105;46.046;10.760;2023-04-01T18:46:55;2.13;;;2.03;;
63018;SDS011;49105;46.046;10.760;2023-04-01T18:52:42;1.60;;;1.60;;
63018;SDS011;49105;46.046;10.760;2023-04-01T18:58:11;1.65;;;1.65;;
63018;SDS011;49105;46.046;10.760;2023-04-01T19:00:51;1.80;;;1.80;;
63018;SDS011;49105;46.046;10.760;2023-04-01T19:03:32;1.80;;;1.80;;
63018;SDS011;49105;46.046;10.760;2023-04-01T19:06:27;1.63;;;1.63;;
63018;SDS011;49105;46.046;10.760;2023-04-01T19:09:17;1.92;;;1.77;;
63018;SDS011;49105;46.046;10.760;2023-04-01T19:19:55;1.80;;;1.80;;
63018;SDS011;49105;46.046;10.760;2023-04-01T19:26:05;1.73;;;1.73;;
63018;SDS011;49105;46.046;10.760;2023-04-01T19:45:47;2.25;;;2.15;;
63018;SDS011;49105;46.046;10.760;2023-04-01T19:56:19;1.95;;;1.95;;
63018;SDS011;49105;46.046;10.760;2023-04-01T20:01:37;2.50;;;2.45;;
63018;SDS011;49105;46.046;10.760;2023-04-01T20:07:17;2.28;;;1.77;;
63018;SDS011;49105;46.046;10.760;2023-04-01T20:10:05;1.73;;;1.73;;
63018;SDS011;49105;46.046;10.760;2023-04-01T20:12:49;1.95;;;1.95;;
63018;SDS011;49105;46.046;10.760;2023-04-01T20:15:45;2.72;;;2.63;;
63018;SDS011;49105;46.046;10.760;2023-04-01T20:18:22;2.40;;;2.35;;
63018;SDS011;49105;46.046;10.760;2023-04-01T20:21:00;1.92;;;1.92;;
63018;SDS011;49105;46.046;10.760;2023-04-01T20:44:04;1.60;;;1.60;;
63018;SDS011;49105;46.046;10.760;2023-04-01T20:54:41;1.95;;;1.95;;
63018;SDS011;49105;46.046;10.760;2023-04-01T20:57:38;2.20;;;2.00;;
63018;SDS011;49105;46.046;10.760;2023-04-01T21:09:46;1.52;;;1.52;;
63018;SDS011;49105;46.046;10.760;2023-04-01T21:32:31;1.95;;;1.95;;
63018;SDS011;49105;46.046;10.760;2023-04-01T21:52:35;1.90;;;1.90;;
63018;SDS011;49105;46.046;10.760;2023-04-01T22:04:18;2.13;;;2.13;;
63018;SDS011;49105;46.046;10.760;2023-04-01T22:12:38;1.63;;;1.63;;
63018;SDS011;49105;46.046;10.760;2023-04-01T22:21:35;1.88;;;1.88;;
63018;SDS011;49105;46.046;10.760;2023-04-01T22:43:00;1.88;;;1.88;;
63018;SDS011;49105;46.046;10.760;2023-04-01T22:53:27;2.30;;;2.25;;
63018;SDS011;49105;46.046;10.760;2023-04-01T22:56:19;1.90;;;1.90;;
63018;SDS011;49105;46.046;10.760;2023-04-01T22:58:56;2.00;;;2.00;;
63018;SDS011;49105;46.046;10.760;2023-04-01T23:01:30;1.98;;;1.98;;
63018;SDS011;49105;46.046;10.760;2023-04-01T23:04:07;1.65;;;1.65;;
63018;SDS011;49105;46.046;10.760;2023-04-01T23:06:48;1.60;;;1.60;;
63018;SDS011;49105;46.046;10.760;2023-04-01T23:09:19;1.70;;;1.70;;
63018;SDS011;49105;46.046;10.760;2023-04-01T23:11:58;2.10;;;2.10;;
63018;SDS011;49105;46.046;10.760;2023-04-01T23:23:33;1.75;;;1.75;;
63018;SDS011;49105;46.046;10.760;2023-04-01T23:36:48;1.70;;;1.70;;
63018;SDS011;49105;46.046;10.760;2023-04-01T23:39:24;1.85;;;1.85;;
63018;SDS011;49105;46.046;10.760;2023-04-01T23:42:00;1.70;;;1.70;;
63018;SDS011;49105;46.046;10.760;2023-04-01T23:44:42;1.85;;;1.85;;
63018;SDS011;49105;46.046;10.760;2023-04-01T23:47:19;1.80;;;1.80;;
63018;SDS011;49105;46.046;10.760;2023-04-01T23:49:56;2.00;;;2.00;;
63018;SDS011;49105;46.046;10.760;2023-04-01T23:52:30;2.20;;;2.20;;
